createdAt,value
2024-01-15T00:02:16.091Z,116.28
2024-01-15T00:04:44.048Z,115.10
2024-01-15T00:07:12.745Z,115.43
2024-01-15T00:09:41.409Z,118.30
2024-01-15T00:12:09.181Z,114.63
2024-01-15T00:14:36.864Z,120.55
2024-01-15T00:17:04.608Z,123.18
2024-01-15T00:19:33.654Z,118.82
2024-01-15T00:22:01.487Z,119.15
2024-01-15T00:24:30.120Z,125.45
2024-01-15T00:26:58.178Z,126.75
2024-01-15T00:29:25.743Z,132.85
2024-01-15T00:31:54.759Z,121.55
2024-01-15T00:34:23.719Z,136.55
2024-01-15T00:36:51.418Z,123.15
2024-01-15T00:39:19.194Z,137.20
2024-01-15T00:41:46.953Z,130.48
2024-01-15T00:44:14.523Z,119.82
2024-01-15T00:46:46.792Z,130.20
2024-01-15T00:49:15.029Z,128.00
2024-01-15T00:51:42.910Z,127.20
2024-01-15T00:54:10.491Z,123.40
2024-01-15T00:56:39.855Z,119.15
2024-01-15T00:59:07.536Z,130.77
2024-01-15T01:01:35.249Z,123.90
2024-01-15T01:04:03.011Z,131.57
2024-01-15T01:06:33.486Z,124.00
2024-01-15T01:09:01.951Z,124.05
2024-01-15T01:11:29.732Z,124.55
2024-01-15T01:13:57.968Z,121.13
2024-01-15T01:16:25.987Z,135.88
2024-01-15T01:18:54.525Z,129.18
2024-01-15T01:21:22.340Z,139.38
2024-01-15T01:23:50.030Z,128.45
2024-01-15T01:26:19.063Z,129.38
2024-01-15T01:28:47.288Z,125.30
2024-01-15T01:31:15.008Z,127.53
2024-01-15T01:33:42.785Z,126.05
2024-01-15T01:36:11.078Z,133.88
2024-01-15T01:38:39.341Z,118.47
2024-01-15T01:41:07.034Z,124.28
2024-01-15T01:43:34.748Z,123.47
2024-01-15T01:46:04.083Z,130.98
2024-01-15T01:48:32.962Z,125.63
2024-01-15T01:51:03.316Z,122.93
2024-01-15T01:53:34.161Z,128.57
2024-01-15T01:56:02.593Z,124.30
2024-01-15T01:58:31.733Z,120.88
2024-01-15T02:01:00.419Z,124.68
2024-01-15T02:03:29.776Z,131.63
2024-01-15T02:05:58.016Z,128.98
2024-01-15T02:08:27.209Z,123.13
2024-01-15T02:10:55.179Z,116.10
2024-01-15T02:13:23.088Z,126.28
2024-01-15T02:15:50.865Z,132.90
2024-01-15T02:18:18.785Z,123.50
2024-01-15T02:20:47.741Z,124.18
2024-01-15T02:23:16.444Z,123.90
2024-01-15T02:25:46.483Z,122.85
2024-01-15T02:28:16.770Z,126.03
2024-01-15T02:30:45.184Z,127.07
2024-01-15T02:33:13.720Z,124.97
2024-01-15T02:35:42.103Z,128.48
2024-01-15T02:38:10.775Z,124.93
2024-01-15T02:40:40.409Z,116.82
2024-01-15T02:43:08.185Z,119.93
2024-01-15T02:45:35.972Z,121.43
2024-01-15T02:48:03.900Z,121.50
2024-01-15T02:50:32.736Z,122.68
2024-01-15T02:53:00.446Z,120.70
2024-01-15T02:55:30.701Z,125.18
2024-01-15T02:57:59.643Z,127.80
2024-01-15T03:00:27.205Z,131.75
2024-01-15T03:02:55.783Z,133.27
2024-01-15T03:05:23.828Z,136.18
2024-01-15T03:07:51.456Z,125.88
2024-01-15T03:10:19.587Z,128.82
2024-01-15T03:12:47.166Z,135.68
2024-01-15T03:15:14.881Z,123.72
2024-01-15T03:17:44.240Z,125.03
2024-01-15T03:20:12.757Z,123.97
2024-01-15T03:22:40.759Z,124.80
2024-01-15T03:25:09.192Z,125.22
2024-01-15T03:27:37.136Z,128.35
2024-01-15T03:30:05.241Z,119.60
2024-01-15T03:32:33.862Z,120.03
2024-01-15T03:35:01.910Z,121.80
2024-01-15T03:37:29.679Z,119.60
2024-01-15T03:39:58.143Z,118.53
2024-01-15T03:42:25.896Z,123.32
2024-01-15T03:44:53.573Z,132.90
2024-01-15T03:47:21.211Z,126.43
2024-01-15T03:49:49.017Z,118.72
2024-01-15T03:52:16.745Z,109.57
2024-01-15T03:54:44.491Z,117.97
2024-01-15T03:57:12.067Z,116.55
2024-01-15T03:59:42.913Z,118.95
2024-01-15T04:02:10.497Z,119.00
2024-01-15T04:04:42.235Z,112.28
2024-01-15T04:07:10.985Z,118.55
2024-01-15T04:09:39.137Z,117.60
2024-01-15T04:12:06.957Z,116.57
2024-01-15T04:14:34.616Z,113.25
2024-01-15T04:17:02.328Z,107.95
2024-01-15T04:19:30.045Z,121.10
2024-01-15T04:21:57.740Z,112.78
2024-01-15T04:24:25.357Z,112.97
2024-01-15T04:26:52.996Z,109.57
2024-01-15T04:29:20.667Z,113.47
2024-01-15T04:31:48.470Z,119.88
2024-01-15T04:34:16.089Z,104.07
2024-01-15T04:36:44.347Z,111.57
2024-01-15T04:39:13.034Z,109.00
2024-01-15T04:41:40.747Z,110.05
2024-01-15T04:44:08.315Z,110.72
2024-01-15T04:46:36.162Z,115.97
2024-01-15T04:49:03.806Z,123.57
2024-01-15T04:51:31.838Z,117.65
2024-01-15T04:53:59.473Z,119.00
2024-01-15T04:56:27.983Z,115.47
2024-01-15T04:58:55.566Z,106.47
2024-01-15T05:01:23.730Z,108.53
2024-01-15T05:03:51.571Z,111.63
2024-01-15T05:06:19.739Z,110.35
2024-01-15T05:08:47.315Z,111.30
2024-01-15T05:11:14.904Z,111.95
2024-01-15T05:13:42.663Z,112.55
2024-01-15T05:16:10.271Z,106.90
2024-01-15T05:18:41.184Z,115.90
2024-01-15T05:21:09.955Z,109.53
2024-01-15T05:23:37.980Z,114.00
2024-01-15T05:26:05.537Z,118.82
2024-01-15T05:28:33.249Z,107.03
2024-01-15T05:31:01.185Z,108.55
2024-01-15T05:33:29.001Z,108.00
2024-01-15T05:35:56.851Z,104.78
2024-01-15T05:38:24.446Z,105.20
2024-01-15T05:40:51.979Z,105.72
2024-01-15T05:43:19.724Z,111.07
2024-01-15T05:45:47.481Z,111.43
2024-01-15T05:48:15.334Z,110.78
2024-01-15T05:50:43.255Z,109.85
2024-01-15T05:53:11.355Z,117.43
2024-01-15T05:55:39.669Z,110.78
2024-01-15T05:58:07.516Z,107.07
2024-01-15T06:00:36.788Z,105.47
2024-01-15T06:03:04.509Z,109.07
2024-01-15T06:05:32.240Z,101.50
2024-01-15T06:07:59.797Z,102.15
2024-01-15T06:10:27.536Z,111.38
2024-01-15T06:12:55.279Z,113.90
2024-01-15T06:15:23.361Z,105.93
2024-01-15T06:17:51.136Z,115.75
2024-01-15T06:20:19.169Z,107.28
2024-01-15T06:22:46.794Z,105.97
2024-01-15T06:25:14.722Z,112.50
2024-01-15T06:27:42.395Z,112.63
2024-01-15T06:30:10.692Z,108.65
2024-01-15T06:32:38.631Z,117.90
2024-01-15T06:35:07.111Z,108.45
2024-01-15T06:37:35.114Z,117.78
2024-01-15T06:40:02.760Z,118.93
2024-01-15T06:42:30.747Z,126.63
2024-01-15T06:44:58.385Z,122.88
2024-01-15T06:47:26.046Z,128.95
2024-01-15T06:49:53.971Z,119.10
2024-01-15T06:52:21.728Z,122.65
2024-01-15T06:54:49.952Z,120.72
2024-01-15T06:57:17.913Z,129.35
2024-01-15T06:59:45.620Z,106.97
2024-01-15T07:02:13.705Z,111.07
2024-01-15T07:04:43.593Z,113.70
2024-01-15T07:07:11.598Z,118.68
2024-01-15T07:09:40.209Z,108.28
2024-01-15T07:12:07.933Z,127.70
2024-01-15T07:14:36.738Z,112.05
2024-01-15T07:17:04.442Z,113.95
2024-01-15T07:19:32.094Z,110.38
2024-01-15T07:22:00.393Z,109.57
2024-01-15T07:24:28.195Z,103.63
2024-01-15T07:26:56.897Z,93.72
2024-01-15T07:29:24.562Z,108.78
2024-01-15T07:31:52.838Z,103.78
2024-01-15T07:34:20.890Z,98.53
2024-01-15T07:36:49.592Z,106.00
2024-01-15T07:39:18.202Z,110.78
2024-01-15T07:41:46.235Z,120.70
2024-01-15T07:44:13.879Z,107.57
2024-01-15T07:46:45.127Z,117.10
2024-01-15T07:49:12.994Z,132.27
2024-01-15T07:51:41.826Z,119.90
2024-01-15T07:54:10.426Z,125.80
2024-01-15T07:57:01.193Z,120.22
2024-01-15T07:59:29.001Z,112.18
2024-01-15T08:01:57.737Z,115.30
2024-01-15T08:04:26.293Z,122.43
2024-01-15T08:06:54.276Z,105.38
2024-01-15T08:09:22.397Z,109.68
2024-01-15T08:11:50.728Z,108.85
2024-01-15T08:14:19.166Z,100.05
2024-01-15T08:16:47.155Z,84.28
2024-01-15T08:19:15.701Z,85.32
2024-01-15T08:21:44.103Z,105.28
2024-01-15T08:24:11.805Z,92.55
2024-01-15T08:26:39.533Z,109.95
2024-01-15T08:29:08.185Z,108.35
2024-01-15T08:31:36.187Z,97.93
2024-01-15T08:34:04.058Z,84.13
2024-01-15T08:36:33.076Z,73.63
2024-01-15T08:39:00.700Z,64.90
2024-01-15T08:41:28.350Z,66.45
2024-01-15T08:43:56.255Z,73.15
2024-01-15T08:46:24.127Z,75.70
2024-01-15T08:48:52.379Z,61.47
2024-01-15T08:51:20.139Z,65.57
2024-01-15T08:53:47.971Z,70.10
2024-01-15T08:56:16.020Z,69.20
2024-01-15T08:58:43.720Z,73.57
2024-01-15T09:01:11.900Z,72.35
2024-01-15T09:03:42.961Z,66.70
2024-01-15T09:06:11.581Z,76.00
2024-01-15T09:08:40.188Z,80.90
2024-01-15T09:11:07.749Z,73.22
2024-01-15T09:13:35.843Z,76.15
2024-01-15T09:16:04.749Z,74.53
2024-01-15T09:18:33.770Z,75.78
2024-01-15T09:21:01.381Z,78.40
2024-01-15T09:23:29.821Z,73.57
2024-01-15T09:25:58.046Z,82.32
2024-01-15T09:28:26.067Z,75.50
2024-01-15T09:30:55.772Z,84.88
2024-01-15T09:33:23.626Z,78.15
2024-01-15T09:35:51.399Z,81.22
2024-01-15T09:38:20.389Z,86.90
2024-01-15T09:40:48.497Z,78.97
2024-01-15T09:43:17.229Z,79.40
2024-01-15T09:45:45.864Z,86.10
2024-01-15T09:48:14.205Z,81.53
2024-01-15T09:50:41.986Z,82.03
2024-01-15T09:53:10.707Z,77.93
2024-01-15T09:55:41.082Z,77.53
2024-01-15T09:58:09.068Z,84.15
2024-01-15T10:00:40.315Z,88.10
2024-01-15T10:03:09.432Z,88.38
2024-01-15T10:05:37.115Z,82.38
2024-01-15T10:08:06.752Z,84.80
2024-01-15T10:10:37.772Z,91.95
2024-01-15T10:13:06.029Z,83.97
2024-01-15T10:15:38.242Z,82.72
2024-01-15T10:18:06.814Z,85.50
2024-01-15T10:20:34.537Z,84.15
2024-01-15T10:23:02.130Z,88.70
2024-01-15T10:25:30.518Z,84.80
2024-01-15T10:28:02.885Z,90.68
2024-01-15T10:30:31.516Z,87.40
2024-01-15T10:33:04.066Z,90.97
2024-01-15T10:35:35.750Z,84.78
2024-01-15T10:38:04.257Z,82.47
2024-01-15T10:40:32.714Z,76.25
2024-01-15T10:43:00.356Z,84.30
2024-01-15T10:45:28.651Z,84.25
2024-01-15T10:48:00.368Z,83.07
2024-01-15T10:50:30.700Z,76.43
2024-01-15T10:52:59.178Z,81.70
2024-01-15T10:55:29.106Z,74.53
2024-01-15T10:57:59.190Z,75.07
2024-01-15T11:00:29.131Z,75.60
2024-01-15T11:02:57.486Z,66.93
2024-01-15T11:05:25.257Z,67.80
2024-01-15T11:07:57.582Z,79.45
2024-01-15T11:10:47.854Z,90.47
2024-01-15T11:13:21.503Z,93.65
2024-01-15T11:16:00.985Z,85.82
2024-01-15T11:18:53.115Z,85.82
2024-01-15T11:21:23.145Z,90.15
2024-01-15T11:23:54.758Z,90.93
2024-01-15T11:26:32.455Z,95.95
2024-01-15T11:29:21.588Z,85.50
2024-01-15T11:31:49.610Z,89.85
2024-01-15T11:34:17.569Z,82.70
2024-01-15T11:36:54.725Z,84.93
2024-01-15T11:39:28.372Z,85.18
2024-01-15T11:44:25.068Z,83.45
2024-01-15T11:47:13.011Z,84.25
2024-01-15T11:50:06.332Z,75.05
2024-01-15T11:52:36.417Z,77.07
2024-01-15T11:55:20.721Z,77.43
2024-01-15T11:57:52.321Z,76.75
2024-01-15T12:00:20.769Z,74.40
2024-01-15T12:02:52.156Z,69.30
2024-01-15T12:05:21.440Z,67.18
2024-01-15T12:07:51.398Z,74.00
2024-01-15T12:10:21.331Z,74.25
2024-01-15T12:12:58.521Z,72.45
2024-01-15T12:15:29.800Z,72.22
2024-01-15T12:18:00.001Z,79.32
2024-01-15T12:20:28.732Z,78.80
2024-01-15T12:23:01.698Z,73.60
2024-01-15T12:25:33.178Z,71.25
2024-01-15T12:28:02.426Z,78.25
2024-01-15T12:30:34.985Z,78.65
2024-01-15T12:33:05.417Z,82.10
2024-01-15T12:35:35.609Z,68.30
2024-01-15T12:38:04.278Z,75.63
2024-01-15T12:40:34.432Z,71.63
2024-01-15T12:43:02.999Z,73.80
2024-01-15T12:45:31.487Z,67.82
2024-01-15T12:48:01.869Z,71.03
2024-01-15T12:50:29.981Z,70.32
2024-01-15T12:52:57.671Z,74.18
2024-01-15T12:55:25.333Z,76.32
2024-01-15T12:57:56.746Z,75.38
2024-01-15T13:00:27.523Z,69.07
2024-01-15T13:02:56.327Z,71.03
2024-01-15T13:05:25.393Z,70.53
2024-01-15T13:07:54.111Z,72.10
2024-01-15T13:10:24.881Z,75.47
2024-01-15T13:12:53.833Z,76.20
2024-01-15T13:15:21.563Z,73.68
2024-01-15T13:17:49.183Z,69.60
2024-01-15T13:20:17.144Z,65.07
2024-01-15T13:22:45.926Z,64.30
2024-01-15T13:25:14.261Z,62.97
2024-01-15T13:27:43.112Z,71.38
2024-01-15T13:30:12.395Z,67.07
2024-01-15T13:32:40.117Z,66.07
2024-01-15T13:35:11.315Z,66.68
2024-01-15T13:37:39.532Z,65.25
2024-01-15T13:40:10.854Z,76.95
2024-01-15T13:42:39.597Z,70.32
2024-01-15T13:45:08.816Z,61.30
2024-01-15T13:47:38.795Z,69.35
2024-01-15T13:50:07.830Z,66.63
2024-01-15T13:52:36.145Z,66.50
2024-01-15T13:55:04.647Z,80.53
2024-01-15T13:57:32.673Z,67.18
2024-01-15T14:00:01.332Z,74.00
2024-01-15T14:02:28.940Z,78.65
2024-01-15T14:04:56.516Z,79.30
2024-01-15T14:07:25.106Z,78.38
2024-01-15T14:09:53.868Z,72.97
2024-01-15T14:12:22.842Z,75.75
2024-01-15T14:14:50.665Z,74.43
2024-01-15T14:17:19.071Z,72.85
2024-01-15T14:19:46.673Z,76.22
2024-01-15T14:22:14.724Z,79.95
2024-01-15T14:24:42.770Z,77.47
2024-01-15T14:27:11.196Z,78.53
2024-01-15T14:29:39.502Z,82.18
2024-01-15T14:32:07.068Z,76.78
2024-01-15T14:34:37.468Z,79.40
2024-01-15T14:37:05.264Z,83.05
2024-01-15T14:39:35.595Z,82.20
2024-01-15T14:42:03.449Z,80.80
2024-01-15T14:44:31.157Z,85.38
2024-01-15T14:47:00.046Z,86.13
2024-01-15T14:49:28.244Z,87.82
2024-01-15T14:51:56.201Z,87.68
2024-01-15T14:54:24.947Z,85.53
2024-01-15T14:56:53.785Z,80.10
2024-01-15T14:59:21.452Z,79.78
2024-01-15T15:01:49.615Z,84.93
2024-01-15T15:04:17.490Z,84.85
2024-01-15T15:06:45.356Z,90.35
2024-01-15T15:09:14.519Z,97.28
2024-01-15T15:11:42.154Z,97.00
2024-01-15T15:14:09.690Z,106.15
2024-01-15T15:16:38.547Z,105.13
2024-01-15T15:19:06.360Z,102.15
2024-01-15T15:21:34.120Z,102.97
2024-01-15T15:24:01.994Z,106.50
2024-01-15T15:26:30.282Z,100.70
2024-01-15T15:28:58.289Z,100.07
2024-01-15T15:31:26.161Z,114.82
2024-01-15T15:33:54.313Z,104.97
2024-01-15T15:36:22.375Z,101.53
2024-01-15T15:38:50.068Z,104.57
2024-01-15T15:41:17.631Z,104.93
2024-01-15T15:43:45.751Z,106.30
2024-01-15T15:46:13.861Z,109.35
2024-01-15T15:48:42.063Z,108.90
2024-01-15T15:51:10.377Z,110.50
2024-01-15T15:53:39.003Z,109.68
2024-01-15T15:56:07.921Z,108.20
2024-01-15T15:58:36.326Z,104.57
2024-01-15T16:01:05.271Z,102.45
2024-01-15T16:03:33.047Z,111.43
2024-01-15T16:06:01.480Z,110.65
2024-01-15T16:08:29.377Z,114.20
2024-01-15T16:10:57.007Z,123.72
2024-01-15T16:13:26.800Z,109.55
2024-01-15T16:23:08.506Z,118.25
2024-01-15T16:23:22.072Z,108.78
2024-01-15T16:23:37.055Z,109.97
2024-01-15T16:26:50.859Z,115.85
2024-01-15T16:29:20.549Z,120.45
2024-01-15T16:31:48.654Z,122.32
2024-01-15T16:34:16.940Z,108.60
2024-01-15T16:36:44.623Z,113.03
2024-01-15T16:39:12.302Z,111.95
2024-01-15T16:41:40.412Z,124.05
2024-01-15T16:44:08.114Z,107.85
2024-01-15T16:46:35.911Z,112.32
2024-01-15T16:49:09.363Z,121.35
2024-01-15T16:51:37.523Z,111.25
2024-01-15T16:54:05.371Z,120.63
2024-01-15T16:56:32.964Z,119.45
2024-01-15T16:59:01.107Z,135.95
2024-01-15T17:01:28.696Z,125.90
2024-01-15T17:03:57.083Z,127.82
2024-01-15T17:06:24.684Z,131.38
2024-01-15T17:08:52.709Z,121.88
2024-01-15T17:11:20.338Z,118.45
2024-01-15T17:13:48.569Z,120.07
2024-01-15T17:16:16.587Z,127.63
2024-01-15T17:18:45.986Z,121.00
2024-01-15T17:21:13.744Z,117.20
2024-01-15T17:23:41.405Z,127.47
2024-01-15T17:26:09.402Z,126.65
2024-01-15T17:28:37.037Z,124.38
2024-01-15T17:31:04.739Z,129.55
2024-01-15T17:33:33.694Z,124.53
2024-01-15T17:36:02.430Z,120.82
2024-01-15T17:38:30.528Z,128.00
2024-01-15T17:40:59.174Z,130.77
2024-01-15T17:43:27.334Z,123.28
2024-01-15T17:45:56.568Z,125.45
2024-01-15T17:48:24.711Z,119.15
2024-01-15T17:50:53.089Z,134.55
2024-01-15T17:53:21.817Z,128.80
2024-01-15T17:55:50.476Z,130.13
2024-01-15T17:58:18.563Z,130.23
2024-01-15T18:00:46.515Z,133.65
2024-01-15T18:03:15.664Z,139.73
2024-01-15T18:05:43.578Z,147.73
2024-01-15T18:08:13.430Z,137.32
2024-01-15T18:10:41.870Z,144.13
2024-01-15T18:13:11.564Z,140.88
2024-01-15T18:15:41.355Z,128.30
2024-01-15T18:18:09.047Z,137.75
2024-01-15T18:20:37.554Z,139.45
2024-01-15T18:23:05.389Z,137.18
2024-01-15T18:25:33.763Z,139.45
2024-01-15T18:28:01.468Z,143.02
2024-01-15T18:30:28.992Z,153.15
2024-01-15T18:32:56.691Z,142.77
2024-01-15T18:35:26.974Z,140.43
2024-01-15T18:37:54.817Z,153.05
2024-01-15T18:40:23.519Z,158.68
2024-01-15T18:42:51.237Z,167.40
2024-01-15T18:45:18.950Z,168.73
2024-01-15T18:47:47.179Z,157.45
2024-01-15T18:50:15.863Z,162.10
2024-01-15T18:52:43.697Z,153.30
2024-01-15T18:55:14.589Z,130.52
2024-01-15T18:57:42.541Z,133.35
2024-01-15T19:00:12.063Z,126.47
2024-01-15T19:02:39.880Z,131.60
2024-01-15T19:05:08.483Z,123.63
2024-01-15T19:07:37.544Z,128.48
2024-01-15T19:10:06.407Z,131.95
2024-01-15T19:12:34.170Z,130.85
2024-01-15T19:15:03.112Z,131.20
2024-01-15T19:17:31.807Z,122.05
2024-01-15T19:19:59.449Z,138.52
2024-01-15T19:22:28.649Z,135.75
2024-01-15T19:24:56.946Z,136.30
2024-01-15T19:27:24.679Z,133.82
2024-01-15T19:29:52.683Z,134.68
2024-01-15T19:32:20.659Z,128.05
2024-01-15T19:34:48.242Z,135.88
2024-01-15T19:37:15.943Z,129.88
2024-01-15T19:39:43.642Z,135.32
2024-01-15T19:42:11.916Z,144.30
2024-01-15T19:44:39.482Z,136.65
2024-01-15T19:47:07.085Z,134.32
2024-01-15T19:49:35.495Z,152.20
2024-01-15T19:52:03.133Z,137.55
2024-01-15T19:54:30.795Z,124.90
2024-01-15T19:56:58.967Z,128.00
2024-01-15T19:59:27.070Z,130.40
2024-01-15T20:01:55.538Z,132.68
2024-01-15T20:04:23.702Z,136.20
2024-01-15T20:06:51.318Z,130.73
2024-01-15T20:09:19.873Z,137.85
2024-01-15T20:11:48.073Z,122.25
2024-01-15T20:14:16.445Z,132.15
2024-01-15T20:16:44.452Z,149.90
2024-01-15T20:19:13.219Z,146.15
2024-01-15T20:21:41.475Z,127.75
2024-01-15T20:24:09.100Z,126.15
2024-01-15T20:26:36.867Z,135.43
2024-01-15T20:29:04.464Z,124.75
2024-01-15T20:31:32.630Z,120.35
2024-01-15T20:34:00.442Z,129.07
2024-01-15T20:36:28.596Z,120.10
2024-01-15T20:38:56.350Z,127.88
2024-01-15T20:41:25.951Z,129.23
2024-01-15T20:43:54.199Z,122.95
2024-01-15T20:46:23.472Z,128.98
2024-01-15T20:48:51.404Z,132.95
2024-01-15T20:51:19.215Z,124.80
2024-01-15T20:53:49.618Z,128.00
2024-01-15T20:56:17.826Z,125.10
2024-01-15T20:58:45.957Z,125.13
2024-01-15T21:01:14.171Z,122.00
2024-01-15T21:03:41.916Z,125.78
2024-01-15T21:06:10.893Z,121.55
2024-01-15T21:08:41.293Z,121.20
2024-01-15T21:11:09.291Z,117.90
2024-01-15T21:13:36.922Z,126.13
2024-01-15T21:16:06.683Z,123.60
2024-01-15T21:18:35.552Z,120.00
2024-01-15T21:21:03.403Z,112.82
2024-01-15T21:23:32.638Z,118.47
2024-01-15T21:26:01.090Z,118.68
2024-01-15T21:28:31.203Z,122.82
2024-01-15T21:31:00.896Z,119.97
2024-01-15T21:33:38.032Z,118.53
2024-01-15T21:36:06.921Z,119.55
2024-01-15T21:38:35.452Z,122.45
2024-01-15T21:41:03.881Z,125.40
2024-01-15T21:43:32.223Z,118.68
2024-01-15T21:46:00.580Z,126.03
2024-01-15T21:48:28.941Z,129.68
2024-01-15T21:50:57.029Z,125.75
2024-01-15T21:53:25.262Z,129.52
2024-01-15T21:55:53.041Z,128.18
2024-01-15T21:58:21.390Z,126.80
2024-01-15T22:00:49.093Z,122.70
2024-01-15T22:03:18.399Z,126.95
2024-01-15T22:05:47.830Z,124.75
2024-01-15T22:08:16.048Z,124.18
2024-01-15T22:10:44.089Z,129.65
2024-01-15T22:13:12.098Z,123.85
2024-01-15T22:15:40.479Z,122.97
2024-01-15T22:18:08.398Z,134.73
2024-01-15T22:20:36.200Z,123.20
2024-01-15T22:23:04.108Z,120.18
2024-01-15T22:25:33.290Z,119.32
2024-01-15T22:28:00.953Z,126.57
2024-01-15T22:30:28.544Z,131.43
2024-01-15T22:32:56.342Z,127.50
2024-01-15T22:35:24.124Z,120.40
2024-01-15T22:37:52.683Z,121.72
2024-01-15T22:40:21.155Z,120.18
2024-01-15T22:42:49.091Z,124.65
2024-01-15T22:45:17.648Z,117.72
2024-01-15T22:47:45.812Z,126.35
2024-01-15T22:50:14.530Z,116.28
2024-01-15T22:52:42.232Z,123.53
2024-01-15T22:55:10.052Z,125.50
2024-01-15T22:57:37.729Z,115.63
2024-01-15T23:00:20.003Z,120.05
2024-01-15T23:02:48.690Z,113.00
2024-01-15T23:05:17.588Z,118.70
2024-01-15T23:07:45.608Z,115.28
2024-01-15T23:10:15.153Z,119.18
2024-01-15T23:12:43.253Z,111.13
2024-01-15T23:15:11.026Z,129.65
2024-01-15T23:17:39.243Z,128.32
2024-01-15T23:20:09.944Z,114.60
2024-01-15T23:22:40.990Z,119.88
2024-01-15T23:25:10.017Z,119.93
2024-01-15T23:27:38.313Z,122.45
2024-01-15T23:30:06.518Z,118.57
2024-01-15T23:32:34.166Z,119.07
2024-01-15T23:35:04.647Z,118.18
2024-01-15T23:37:32.320Z,113.05
2024-01-15T23:40:00.333Z,109.85
2024-01-15T23:42:28.124Z,118.85
2024-01-15T23:44:55.908Z,117.25
2024-01-15T23:47:24.800Z,114.50
2024-01-15T23:49:52.554Z,107.30
2024-01-15T23:52:20.232Z,118.63
2024-01-15T23:54:48.187Z,126.82
2024-01-15T23:57:15.854Z,115.80
2024-01-15T23:59:44.074Z,113.13
